Time;durP1;ratioP1;P1;durP2;ratioP2;P2;SDS_P1;SDS_P2;PMS_P1;PMS_P2;Temp;Humidity;BMP_temperature;BMP_pressure;BME280_temperature;BME280_humidity;BME280_pressure;Samples;Min_cycle;Max_cycle;Signal;HPM_P1;HPM_P2
2022/05/20 00:01:26;;;;;;;47.90;30.88;;;17.90;99.90;;;15.67;100.00;101126.78;4857206;29;20052;-91
2022/05/20 00:03:53;;;;;;;42.08;29.20;;;17.90;99.90;;;15.62;100.00;101121.88;4856777;29;20045;-92
2022/05/20 00:06:21;;;;;;;46.40;31.35;;;17.80;99.90;;;15.61;100.00;101120.22;4870356;29;20140;-91
2022/05/20 00:08:48;;;;;;;46.00;30.48;;;17.80;99.90;;;15.60;100.00;101115.75;4844126;29;20042;-90
2022/05/20 00:11:16;;;;;;;42.75;29.05;;;17.80;99.90;;;15.63;100.00;101120.84;4837709;29;20042;-90
2022/05/20 00:13:45;;;;;;;45.70;28.08;;;17.70;99.90;;;15.57;100.00;101123.53;4852089;29;20048;-91
2022/05/20 00:16:14;;;;;;;42.28;28.88;;;17.70;99.90;;;15.49;100.00;101113.59;4854049;29;20054;-91
2022/05/20 00:18:42;;;;;;;41.25;27.73;;;17.70;99.90;;;15.44;100.00;101114.19;4852841;29;20098;-91
2022/05/20 00:21:10;;;;;;;44.03;28.08;;;17.60;99.90;;;15.35;100.00;101120.06;4839155;29;20050;-91
2022/05/20 00:23:37;;;;;;;42.03;28.08;;;17.60;99.90;;;15.30;100.00;101106.94;4842035;29;20069;-91
2022/05/20 00:26:04;;;;;;;38.70;26.83;;;17.50;99.90;;;15.25;100.00;101110.28;4841554;29;20106;-90
2022/05/20 00:28:32;;;;;;;41.92;27.17;;;17.50;99.90;;;15.25;100.00;101113.03;4822042;29;20114;-90
2022/05/20 00:31:04;;;;;;;41.08;28.00;;;17.50;99.90;;;15.18;100.00;101109.38;4829197;29;20062;-91
2022/05/20 00:33:35;;;;;;;41.90;28.00;;;17.40;99.90;;;15.18;100.00;101106.66;4846588;29;20046;-91
2022/05/20 00:36:02;;;;;;;40.25;27.33;;;17.40;99.90;;;15.22;100.00;101115.31;4845207;29;20050;-91
2022/05/20 00:38:30;;;;;;;43.72;28.10;;;17.40;99.90;;;15.17;100.00;101112.31;4839195;29;20370;-89
2022/05/20 00:40:58;;;;;;;39.15;28.15;;;17.30;99.90;;;15.17;100.00;101117.81;4836855;29;20118;-92
2022/05/20 00:43:36;;;;;;;48.85;28.25;;;17.40;99.90;;;15.07;100.00;101114.59;4852898;29;20114;-91
2022/05/20 00:46:07;;;;;;;46.83;29.17;;;17.30;99.90;;;15.11;100.00;101124.94;4855194;29;20049;-91
2022/05/20 00:48:36;;;;;;;;;;;17.30;99.90;;;15.11;100.00;101124.09;4853638;29;20507;-91
2022/05/20 00:51:10;;;;;;;53.03;30.60;;;17.30;99.90;;;15.07;100.00;101122.81;4838115;29;19931;-92
2022/05/20 00:53:45;;;;;;;42.40;28.23;;;17.30;99.90;;;15.07;100.00;101122.81;4857341;29;20045;-91
2022/05/20 00:56:17;;;;;;;47.40;29.25;;;17.20;99.90;;;14.95;100.00;101119.78;4852499;29;20051;-90
2022/05/20 00:58:46;;;;;;;44.65;28.75;;;17.20;99.90;;;14.90;100.00;101123.09;4837620;29;20077;-90
2022/05/20 01:01:13;;;;;;;48.90;28.55;;;17.20;99.90;;;14.86;100.00;101117.16;4837984;29;20054;-91
2022/05/20 01:03:44;;;;;;;46.10;29.92;;;17.20;99.90;;;14.83;100.00;101123.03;4842483;29;20103;-91
2022/05/20 01:06:15;;;;;;;45.83;27.60;;;17.10;99.90;;;14.71;100.00;101129.25;4852510;29;20045;-90
2022/05/20 01:08:43;;;;;;;46.00;30.05;;;17.10;99.90;;;14.71;100.00;101134.72;4871647;29;20109;-91
2022/05/20 01:11:10;;;;;;;51.83;29.80;;;17.10;99.90;;;14.76;100.00;101144.06;4851226;29;20057;-91
2022/05/20 01:13:39;;;;;;;51.05;31.85;;;17.10;99.90;;;14.78;100.00;101136.47;4851503;29;20046;-90
2022/05/20 01:16:11;;;;;;;47.40;28.48;;;17.10;99.90;;;14.79;100.00;101131.84;4859239;29;20056;-89
2022/05/20 01:18:45;;;;;;;47.25;28.80;;;17.10;99.90;;;14.82;100.00;101136.94;4860725;29;20046;-92
2022/05/20 01:21:13;;;;;;;54.42;30.75;;;17.10;99.90;;;14.84;100.00;101130.22;4855601;29;20448;-90
2022/05/20 01:23:42;;;;;;;52.13;30.60;;;17.10;99.90;;;14.86;100.00;101119.88;4827507;29;20578;-90
2022/05/20 01:26:10;;;;;;;52.10;30.17;;;17.20;99.90;;;14.91;100.00;101134.88;4837778;29;20128;-91
2022/05/20 01:28:37;;;;;;;64.22;34.25;;;17.20;99.90;;;14.88;100.00;101114.22;4837116;29;20422;-89
2022/05/20 01:31:10;;;;;;;50.22;31.27;;;17.20;99.90;;;14.89;100.00;101115.06;4846858;29;20449;-91
2022/05/20 01:33:40;;;;;;;47.58;29.65;;;17.10;99.90;;;14.85;100.00;101120.97;4841020;29;20061;-91
2022/05/20 01:36:13;;;;;;;49.83;29.98;;;17.20;99.90;;;14.83;100.00;101106.59;4847303;29;20053;-91
2022/05/20 01:38:43;;;;;;;50.25;30.10;;;17.10;99.90;;;14.78;100.00;101109.09;4850100;29;20145;-91
2022/05/20 01:41:14;;;;;;;52.08;30.65;;;17.10;99.90;;;14.81;100.00;101116.91;4860615;29;20050;-90
2022/05/20 01:44:01;;;;;;;48.13;29.92;;;17.10;99.90;;;14.76;100.00;101115.81;4864719;29;20054;-90
2022/05/20 01:46:37;;;;;;;54.10;30.65;;;17.10;99.90;;;14.74;100.00;101117.91;4846067;29;20499;-92
2022/05/20 01:49:35;;;;;;;52.78;32.20;;;17.10;99.90;;;14.74;100.00;101117.91;4845786;29;20491;-92
2022/05/20 01:52:12;;;;;;;55.30;31.40;;;17.00;99.90;;;14.77;100.00;101118.34;4838351;29;20057;-91
2022/05/20 01:54:53;;;;;;;55.95;31.17;;;17.10;99.90;;;14.74;100.00;101101.47;4844445;29;20399;-92
2022/05/20 01:57:29;;;;;;;51.28;31.60;;;17.10;99.90;;;14.73;100.00;101106.06;4842207;29;20406;-91
2022/05/20 02:00:04;;;;;;;50.25;31.55;;;17.00;99.90;;;14.72;100.00;101104.41;4859893;29;20087;-90
2022/05/20 02:02:42;;;;;;;50.67;31.75;;;17.00;99.90;;;14.76;100.00;101096.63;4846288;29;20512;-91
2022/05/20 02:05:17;;;;;;;50.63;30.23;;;17.00;99.90;;;14.76;100.00;101096.63;4845805;29;20041;-91
2022/05/20 02:07:52;;;;;;;51.38;30.80;;;17.00;99.90;;;14.77;100.00;101093.66;4846639;29;20052;-90
2022/05/20 02:10:27;;;;;;;55.95;31.50;;;17.00;99.90;;;14.73;100.00;101088.81;4856320;29;20057;-91
2022/05/20 02:13:00;;;;;;;57.70;31.60;;;17.00;99.90;;;14.68;100.00;101086.66;4840487;29;20045;-91
2022/05/20 02:15:46;;;;;;;54.63;30.25;;;17.00;99.90;;;14.66;100.00;101080.53;4857110;29;20050;-92
2022/05/20 02:18:20;;;;;;;54.60;32.42;;;17.00;99.90;;;14.62;100.00;101081.94;4869564;29;20118;-91
2022/05/20 02:20:50;;;;;;;56.22;31.33;;;17.00;99.90;;;14.58;100.00;101092.47;4856537;29;20073;-92
2022/05/20 02:23:22;;;;;;;56.78;30.02;;;17.00;99.90;;;14.63;100.00;101086.41;4854485;29;20061;-92
2022/05/20 02:25:56;;;;;;;47.35;28.73;;;16.90;99.90;;;14.62;100.00;101073.72;4852345;29;20065;-92
2022/05/20 02:28:30;;;;;;;56.10;29.75;;;16.90;99.90;;;14.63;100.00;101072.72;4851247;29;20069;-91
2022/05/20 02:30:59;;;;;;;46.80;29.27;;;16.90;99.90;;;14.65;100.00;101071.44;4847692;29;20062;-92
2022/05/20 02:33:28;;;;;;;53.42;30.35;;;16.90;99.90;;;14.65;100.00;101070.63;4862226;29;20053;-90
2022/05/20 02:36:04;;;;;;;60.90;30.35;;;16.90;99.90;;;14.61;100.00;101070.16;4854775;29;20142;-92
2022/05/20 02:38:31;;;;;;;53.97;31.35;;;16.90;99.90;;;14.63;100.00;101069.97;4841016;29;20050;-90
2022/05/20 02:41:00;;;;;;;51.88;29.88;;;16.90;99.90;;;14.61;100.00;101069.31;4839589;29;20507;-90
2022/05/20 02:43:28;;;;;;;53.25;31.45;;;16.90;99.90;;;14.60;100.00;101067.59;4849143;29;20037;-90
2022/05/20 02:45:55;;;;;;;44.60;28.50;;;16.90;99.90;;;14.61;100.00;101070.16;4858423;29;20102;-93
2022/05/20 02:48:25;;;;;;;44.20;28.35;;;16.90;99.90;;;14.62;100.00;101076.47;4839608;29;20054;-91
2022/05/20 02:50:52;;;;;;;44.20;27.67;;;16.90;99.90;;;14.60;100.00;101076.69;4841160;29;20157;-91
2022/05/20 02:53:21;;;;;;;52.65;31.40;;;16.90;99.90;;;14.62;100.00;101076.47;4856536;29;20491;-90
2022/05/20 02:55:48;;;;;;;47.95;29.05;;;16.90;99.90;;;14.57;100.00;101073.50;4857414;29;20057;-91
2022/05/20 03:06:38;;;;;;;39.63;25.73;;;16.80;99.90;;;14.39;100.00;101058.38;4854654;29;20094;-91
2022/05/20 03:09:09;;;;;;;45.05;27.98;;;16.70;99.90;;;14.37;100.00;101067.78;4854928;29;20054;-90
2022/05/20 03:11:39;;;;;;;38.10;25.60;;;16.60;99.90;;;14.35;100.00;101075.34;4839141;29;20507;-91
2022/05/20 03:14:10;;;;;;;44.20;26.95;;;16.70;99.90;;;14.32;100.00;101075.75;4847749;29;20106;-91
2022/05/20 03:16:39;;;;;;;47.13;26.85;;;16.60;99.90;;;14.26;100.00;101080.13;4888792;29;20069;-92
2022/05/20 03:19:08;;;;;;;41.22;25.33;;;16.60;99.90;;;14.24;100.00;101080.31;4870211;29;20081;-92
2022/05/20 03:21:37;;;;;;;38.85;26.05;;;16.60;99.90;;;14.27;100.00;101085.41;4850460;29;20046;-90
2022/05/20 03:24:07;;;;;;;37.67;24.45;;;16.60;99.90;;;14.24;100.00;101085.81;4839331;29;20049;-90
2022/05/20 03:26:36;;;;;;;45.28;26.73;;;16.60;99.90;;;14.21;100.00;101086.19;4848977;29;20077;-90
2022/05/20 03:29:05;;;;;;;52.08;27.83;;;16.50;99.90;;;14.13;100.00;101080.00;4832112;29;20048;-90
2022/05/20 03:31:37;;;;;;;42.58;25.58;;;16.50;99.90;;;14.13;100.00;101078.09;4854911;29;20085;-90
2022/05/20 03:34:06;;;;;;;43.88;27.75;;;16.50;99.90;;;14.13;100.00;101077.25;4847685;29;20049;-91
2022/05/20 03:49:47;;;;;;;42.40;23.98;;;16.40;99.90;;;14.03;100.00;101067.47;4710489;30;20125;-93
2022/05/20 03:52:26;;;;;;;39.78;24.63;;;16.40;99.90;;;13.96;100.00;101066.53;4777982;29;20057;-94
2022/05/20 04:00:07;;;;;;;40.47;25.17;;;16.40;99.90;;;14.01;100.00;101061.34;4724860;30;20051;-93
2022/05/20 04:02:40;;;;;;;44.25;26.20;;;16.40;99.90;;;14.06;100.00;101067.06;4787945;29;20234;-92
2022/05/20 04:05:10;;;;;;;42.42;26.13;;;16.50;99.90;;;14.16;100.00;101071.38;4780082;29;20891;-91
2022/05/20 04:07:39;;;;;;;40.97;25.00;;;16.50;99.90;;;14.16;100.00;101066.75;4793218;29;20145;-93
2022/05/20 04:10:10;;;;;;;42.72;26.35;;;16.50;99.90;;;14.26;100.00;101069.19;4761122;30;20044;-92
2022/05/20 04:12:42;;;;;;;47.05;26.98;;;16.60;99.90;;;14.31;100.00;101066.69;4779441;29;20077;-91
2022/05/20 04:15:15;;;;;;;43.38;26.92;;;16.60;99.90;;;14.37;100.00;101074.09;4775542;29;20051;-91
2022/05/20 04:17:43;;;;;;;47.53;26.90;;;16.70;99.90;;;14.45;100.00;101082.22;4774930;30;20537;-91
2022/05/20 04:20:12;;;;;;;64.65;31.17;;;16.70;99.90;;;14.50;100.00;101084.34;4828677;29;20054;-93
2022/05/20 04:22:41;;;;;;;54.05;32.10;;;16.70;99.90;;;14.54;100.00;101076.59;4838009;29;20072;-90
2022/05/20 04:25:10;;;;;;;55.22;30.58;;;16.80;99.90;;;14.57;100.00;101084.47;4854635;29;20065;-91
2022/05/20 04:27:37;;;;;;;47.75;30.23;;;16.80;99.90;;;14.62;100.00;101087.44;4866971;29;20110;-92
2022/05/20 04:30:07;;;;;;;55.47;31.00;;;16.80;99.90;;;14.68;100.00;101080.31;4837482;29;20582;-93
2022/05/20 04:32:35;;;;;;;54.33;29.60;;;16.80;99.90;;;14.68;100.00;101074.84;4839823;29;20050;-92
2022/05/20 04:35:15;;;;;;;50.45;29.30;;;16.90;99.90;;;14.71;100.00;101075.28;4840617;29;20050;-92
2022/05/20 04:37:43;;;;;;;50.58;31.35;;;16.90;99.90;;;14.74;100.00;101069.44;4838329;29;20534;-90
2022/05/20 04:40:12;;;;;;;70.13;38.67;;;17.00;99.90;;;14.76;100.00;101069.22;4837250;29;20050;-89
2022/05/20 04:48:09;;;;;;;58.65;35.65;;;17.10;99.90;;;14.91;100.00;101080.06;4825089;29;20130;-85
2022/05/20 04:50:39;;;;;;;75.00;43.55;;;17.10;99.90;;;14.98;100.00;101084.59;4836739;29;20045;-89
2022/05/20 04:53:07;;;;;;;68.72;41.78;;;17.20;99.90;;;15.02;100.00;101076.78;4840722;29;20038;-89
2022/05/20 04:55:34;;;;;;;73.50;41.97;;;17.20;99.90;;;15.04;100.00;101074.69;4857883;29;20503;-90
2022/05/20 04:58:02;;;;;;;63.67;39.80;;;17.30;99.90;;;15.08;100.00;101081.50;4842989;29;20048;-91
2022/05/20 05:00:31;;;;;;;64.07;39.10;;;17.30;99.90;;;15.18;100.00;101076.47;4841517;29;20054;-90
2022/05/20 05:03:05;;;;;;;52.58;35.38;;;17.30;99.90;;;15.21;100.00;101073.34;4851271;29;20046;-89
2022/05/20 05:05:32;;;;;;;55.92;34.42;;;17.30;99.90;;;15.25;100.00;101065.56;4839064;29;20042;-90
2022/05/20 05:08:01;;;;;;;54.63;33.10;;;17.30;99.90;;;15.28;100.00;101058.81;4839827;29;20081;-91
2022/05/20 05:10:31;;;;;;;42.70;28.80;;;17.30;99.90;;;15.25;100.00;101060.94;4836628;29;20160;-89
2022/05/20 05:13:00;;;;;;;50.50;31.23;;;17.30;99.90;;;15.25;100.00;101066.41;4843123;29;20055;-89
2022/05/20 05:15:28;;;;;;;56.28;32.65;;;17.30;99.90;;;15.28;100.00;101056.91;4859856;29;20099;-91
2022/05/20 05:18:12;;;;;;;60.55;36.60;;;17.30;99.90;;;15.32;100.00;101066.44;4844675;29;20054;-89
2022/05/20 05:20:48;;;;;;;58.05;35.38;;;17.30;99.90;;;15.37;100.00;101068.59;4856001;29;20056;-91
2022/05/20 05:23:27;;;;;;;54.55;34.85;;;17.30;99.90;;;15.42;100.00;101057.84;4849691;29;20500;-91
2022/05/20 05:25:58;;;;;;;60.53;37.88;;;17.40;99.90;;;15.48;100.00;101048.81;4858552;29;20106;-92
2022/05/20 05:28:35;;;;;;;;;;;;;;;;;;;;;
2022/05/20 05:31:33;;;;;;;61.58;39.28;;;17.50;99.90;;;15.57;100.00;101039.34;4842394;29;20044;-93
2022/05/20 05:34:35;;;;;;;68.82;41.60;;;17.60;99.90;;;15.66;100.00;101039.16;4864086;29;20452;-93
2022/05/20 05:37:10;;;;;;;66.95;41.28;;;17.60;99.90;;;15.70;100.00;101040.44;4846178;29;20082;-92
2022/05/20 05:39:53;;;;;;;65.15;39.10;;;17.70;99.90;;;15.69;100.00;101034.13;4853979;29;20386;-91
2022/05/20 05:42:25;;;;;;;63.30;39.92;;;17.80;99.90;;;15.77;100.00;101033.97;4864873;29;20046;-93
2022/05/20 05:45:11;;;;;;;;;;;;;;;;;;;;;
2022/05/20 05:47:42;;;;;;;66.25;42.08;;;17.90;99.90;;;15.91;100.00;101014.78;4840597;29;20098;-92
2022/05/20 05:50:17;;;;;;;67.97;42.30;;;18.00;99.90;;;15.93;100.00;101013.50;4841259;29;20050;-93
2022/05/20 05:52:47;;;;;;;67.07;41.40;;;18.00;99.90;;;15.92;100.00;101008.25;4856574;29;20046;-92
2022/05/20 05:55:17;;;;;;;66.68;41.38;;;18.00;99.90;;;16.01;100.00;101006.97;4849598;29;20099;-92
2022/05/20 05:57:51;;;;;;;68.63;41.40;;;18.10;99.90;;;16.07;100.00;101006.16;4848366;29;20058;-92
2022/05/20 06:01:23;;;;;;;;;;;;;;;;;;;;;
2022/05/20 07:30:24;;;;;;;22.02;12.05;;;20.70;99.90;;;17.99;100.00;100967.38;5912447;24;20238;-91
2022/05/20 11:23:33;;;;;;;46.72;27.38;;;21.40;99.90;;;19.43;100.00;100519.25;6151514;23;20029;-89
2022/05/20 11:26:23;;;;;;;32.75;20.00;;;21.50;99.90;;;19.24;100.00;100511.13;6109653;23;20026;-91
2022/05/20 11:29:32;;;;;;;26.45;16.02;;;21.50;99.90;;;19.26;100.00;100508.13;6150640;23;20022;-91
2022/05/20 11:32:05;;;;;;;26.85;15.52;;;21.50;99.90;;;19.21;100.00;100510.78;6114680;23;20029;-90
2022/05/20 11:35:01;;;;;;;29.92;18.85;;;21.40;99.90;;;19.16;100.00;100497.72;6125931;23;20025;-91
2022/05/20 11:38:02;;;;;;;38.85;23.10;;;21.40;99.90;;;19.22;100.00;100491.22;6126976;23;20457;-90
2022/05/20 11:40:44;;;;;;;41.67;25.23;;;21.50;99.90;;;19.34;100.00;100488.44;6126825;23;20363;-90
2022/05/20 11:43:32;;;;;;;36.40;20.90;;;21.50;99.90;;;19.29;100.00;100474.56;6152959;23;20017;-92
2022/05/20 11:46:10;;;;;;;42.28;25.08;;;21.50;99.90;;;19.46;100.00;100467.19;6152919;23;20478;-91
2022/05/20 11:49:12;;;;;;;37.20;23.45;;;21.50;99.90;;;19.38;100.00;100456.53;6152017;23;20017;-90
2022/05/20 11:52:24;;;;;;;32.97;22.20;;;21.50;99.90;;;19.24;100.00;100442.16;6152883;23;20055;-90
2022/05/20 11:54:58;;;;;;;31.65;20.65;;;21.50;99.90;;;19.18;100.00;100436.78;6152217;23;20453;-90
2022/05/20 11:57:34;;;;;;;36.28;23.42;;;21.40;99.90;;;19.31;100.00;100428.22;6152677;23;20476;-90
2022/05/20 12:00:06;;;;;;;35.17;23.15;;;21.40;99.90;;;19.20;100.00;100420.81;6151245;23;20057;-90
2022/05/20 12:02:39;;;;;;;36.00;23.00;;;21.40;99.90;;;19.18;100.00;100407.28;6152917;23;20112;-90
2022/05/20 12:05:11;;;;;;;33.63;22.92;;;21.50;99.90;;;19.30;100.00;100398.94;6152051;23;20017;-90
2022/05/20 12:07:40;;;;;;;34.60;22.75;;;21.50;99.90;;;19.25;100.00;100380.38;6152246;23;20028;-89
2022/05/20 12:10:43;;;;;;;33.58;22.80;;;21.50;99.90;;;19.38;100.00;100359.94;6152117;23;20026;-90
2022/05/20 12:13:25;;;;;;;35.08;23.25;;;21.60;99.90;;;19.41;100.00;100345.63;6150713;23;20021;-90
2022/05/20 12:16:12;;;;;;;36.53;24.98;;;21.60;99.90;;;19.62;100.00;100324.75;6152497;23;20451;-89
2022/05/20 12:24:41;;;;;;;35.92;25.15;;;21.80;99.90;;;19.67;100.00;100316.56;6151548;23;20010;-90
2022/05/20 12:27:42;;;;;;;;;;;21.80;99.90;;;19.66;100.00;100323.16;6152958;23;20080;-89
2022/05/20 12:30:39;;;;;;;35.37;23.80;;;21.90;99.90;;;19.66;100.00;100316.81;6152209;23;20385;-90
2022/05/20 12:33:27;;;;;;;36.10;23.33;;;22.00;99.90;;;19.49;100.00;100317.63;6152198;23;20237;-90
2022/05/20 12:36:25;;;;;;;33.30;22.95;;;21.90;99.90;;;19.60;100.00;100320.56;6150419;23;20025;-89
2022/05/20 12:39:49;;;;;;;30.98;21.17;;;21.90;99.90;;;19.44;100.00;100324.97;6150993;23;20516;-90
2022/05/20 12:42:57;;;;;;;28.75;19.95;;;21.80;99.90;;;19.31;100.00;100338.00;6124890;23;20032;-90
2022/05/20 12:45:28;;;;;;;28.05;20.42;;;21.70;99.90;;;19.34;100.00;100353.22;6150390;23;20025;-92
2022/05/20 12:47:56;;;;;;;33.55;21.48;;;21.60;99.90;;;19.36;100.00;100370.38;6151122;23;20033;-90
2022/05/20 14:02:28;;;;;;;;;;;;;;;;;;;;;
2022/05/20 14:06:53;;;;;;;7.30;3.35;;;21.20;99.90;;;19.23;100.00;100263.06;5962531;23;20101;-91
2022/05/20 14:20:40;;;;;;;8.75;2.28;;;21.60;99.90;;;19.30;100.00;100299.59;6192164;22;20052;-92
2022/05/20 14:31:24;;;;;;;4.55;1.95;;;21.30;99.90;;;19.20;100.00;100302.19;6210542;22;20055;-91
2022/05/20 14:33:59;;;;;;;5.47;2.10;;;21.30;99.90;;;19.22;100.00;100309.13;6209277;23;20096;-92
2022/05/20 14:36:28;;;;;;;4.85;2.30;;;21.20;99.90;;;19.22;100.00;100311.06;6211205;23;20384;-91
2022/05/20 14:39:01;;;;;;;4.82;2.10;;;21.30;99.90;;;19.21;100.00;100303.84;6183344;23;20017;-90
2022/05/20 14:41:34;;;;;;;7.05;1.80;;;21.20;99.90;;;19.15;100.00;100291.88;6210760;23;20104;-95
2022/05/20 14:44:26;;;;;;;3.97;1.90;;;21.20;99.90;;;19.16;100.00;100303.78;6185205;23;20099;-92
2022/05/20 14:47:17;;;;;;;6.55;2.33;;;21.10;99.90;;;19.10;100.00;100311.94;6210658;23;20098;-92
2022/05/20 14:50:02;;;;;;;4.05;1.67;;;21.10;99.90;;;19.07;100.00;100309.66;6183199;23;20012;-90
2022/05/20 14:52:36;;;;;;;5.43;2.22;;;21.00;99.90;;;19.07;100.00;100306.91;6210659;23;20087;-91
2022/05/20 14:55:07;;;;;;;5.78;2.03;;;21.00;99.90;;;19.02;100.00;100297.69;6209648;23;20027;-91
2022/05/20 14:57:37;;;;;;;7.18;1.98;;;20.90;99.90;;;19.03;100.00;100280.91;6209466;23;20035;-89
2022/05/20 15:00:24;;;;;;;5.47;2.20;;;20.90;99.90;;;19.06;100.00;100291.47;6210495;23;20021;-90
2022/05/20 15:03:15;;;;;;;6.63;2.58;;;20.80;99.90;;;19.02;100.00;100289.41;6209580;23;20031;-95
2022/05/20 15:05:47;;;;;;;6.05;2.60;;;20.90;99.90;;;18.98;100.00;100275.28;6182833;23;20035;-92
2022/05/20 15:08:16;;;;;;;6.90;2.78;;;20.90;99.90;;;18.97;100.00;100265.34;6186194;23;20052;-92
2022/05/20 15:10:56;;;;;;;;;;;20.80;99.90;;;18.97;100.00;100278.31;6212913;23;20017;-91
2022/05/20 15:13:26;;;;;;;5.65;3.00;;;20.80;99.90;;;18.91;100.00;100280.13;6186446;23;19986;-93
2022/05/20 15:15:54;;;;;;;6.38;3.50;;;20.80;99.90;;;18.94;100.00;100265.81;6210961;23;20028;-91
2022/05/20 15:18:23;;;;;;;5.72;3.20;;;20.90;99.90;;;18.98;100.00;100261.50;6210267;23;20024;-91
2022/05/20 15:21:09;;;;;;;8.45;3.67;;;20.90;99.90;;;19.00;100.00;100262.09;6186316;23;20028;-92
2022/05/20 15:23:42;;;;;;;6.57;3.25;;;20.90;99.90;;;18.99;100.00;100265.09;6184372;23;20025;-91
2022/05/20 15:26:13;;;;;;;7.95;3.17;;;20.90;99.90;;;18.98;100.00;100269.75;6210790;23;20015;-90
2022/05/20 15:28:51;;;;;;;7.32;3.60;;;21.00;99.90;;;18.97;100.00;100272.78;6208376;23;20020;-92
2022/05/20 15:37:11;;;;;;;7.57;4.35;;;20.90;99.90;;;19.04;100.00;100266.03;6210251;23;20029;-91
2022/05/20 15:39:54;;;;;;;8.40;4.32;;;20.90;99.90;;;19.06;100.00;100254.78;6183089;23;20451;-91
2022/05/20 15:42:27;;;;;;;9.60;5.05;;;20.90;99.90;;;19.01;100.00;100247.22;6211336;23;20043;-93
2022/05/20 15:44:55;;;;;;;9.93;5.22;;;20.80;99.90;;;19.00;100.00;100262.09;6186263;23;20024;-91
2022/05/20 15:47:25;;;;;;;7.20;4.57;;;20.80;99.90;;;18.99;100.00;100260.41;6185656;23;20027;-91
2022/05/20 15:50:14;;;;;;;;;;;;;;;;;;;;;
2022/05/20 15:54:15;;;;;;;;;;;;;;;;;;;;;
2022/05/20 16:01:21;;;;;;;8.93;3.08;;;20.70;99.90;;;18.64;100.00;100263.25;6091528;23;20089;-95
2022/05/20 16:04:08;;;;;;;10.07;2.90;;;20.60;99.90;;;18.51;100.00;100258.88;6098739;23;20018;-92
2022/05/20 16:12:00;;;;;;;7.25;2.67;;;20.30;99.90;;;18.33;100.00;100243.34;6206859;22;20418;-93
2022/05/20 16:25:07;;;;;;;;;;;;;;;;;;;;;
2022/05/20 17:02:58;;;;;;;;;;;;;;;;;;;;;
2022/05/20 17:05:28;;;;;;;7.75;4.82;;;20.20;99.90;;;18.23;100.00;100254.16;6120067;23;20026;-91
2022/05/20 17:08:29;;;;;;;10.55;5.25;;;20.20;99.90;;;18.20;100.00;100255.47;6120943;23;20076;-91
2022/05/20 17:10:59;;;;;;;;;;;20.20;99.90;;;18.22;100.00;100260.72;6094480;23;20101;-92
2022/05/20 17:13:31;;;;;;;11.55;5.82;;;20.20;99.90;;;18.17;100.00;100261.47;6120583;23;20061;-90
2022/05/20 17:15:59;;;;;;;12.25;7.55;;;20.10;99.90;;;18.15;100.00;100271.88;6096823;23;20026;-92
2022/05/20 17:18:31;;;;;;;13.18;7.97;;;20.10;99.90;;;18.14;100.00;100276.56;6122560;23;20022;-90
2022/05/20 17:20:58;;;;;;;12.60;8.57;;;20.10;99.90;;;18.16;100.00;100277.16;6096225;23;20030;-89
2022/05/20 17:26:11;;;;;;;15.82;10.27;;;20.10;99.90;;;18.12;100.00;100310.91;6152921;23;20032;-90
2022/05/20 17:28:39;;;;;;;13.60;11.25;;;20.10;99.90;;;18.07;100.00;100308.06;6178531;23;20701;-89
2022/05/20 17:31:08;;;;;;;13.18;10.88;;;20.00;99.90;;;18.05;100.00;100315.69;6181222;23;20021;-89
2022/05/20 17:33:38;;;;;;;17.38;12.60;;;20.00;99.90;;;18.02;100.00;100338.22;6180052;23;20088;-90
2022/05/20 17:36:06;;;;;;;19.50;13.05;;;20.00;99.90;;;17.96;100.00;100351.03;6155138;23;20020;-89
2022/05/20 17:38:33;;;;;;;17.63;14.52;;;19.90;99.90;;;17.85;100.00;100344.41;6179186;23;20471;-88
2022/05/20 17:41:01;;;;;;;21.05;15.30;;;19.80;99.90;;;17.80;100.00;100349.78;6180238;23;20021;-89
2022/05/20 17:43:29;;;;;;;24.38;16.13;;;19.80;99.90;;;17.76;100.00;100368.69;6179853;23;20628;-89
2022/05/20 17:45:59;;;;;;;20.45;16.17;;;19.70;99.90;;;17.72;100.00;100372.13;6180440;23;20017;-90
2022/05/20 17:48:56;;;;;;;20.92;16.45;;;19.70;99.90;;;17.62;100.00;100369.94;6178381;23;20071;-93
2022/05/20 17:51:26;;;;;;;22.05;16.65;;;19.60;99.90;;;17.61;100.00;100392.19;6117413;23;20031;-94
2022/05/20 17:59:40;;;;;;;17.58;14.85;;;19.40;99.90;;;17.38;100.00;100416.63;6207546;22;20036;-93
2022/05/20 18:16:40;;;;;;;14.02;11.07;;;19.10;99.90;;;16.80;100.00;100453.66;5822377;24;20129;-93
2022/05/20 18:19:42;;;;;;;;;;;;;;;;;;;;;
2022/05/20 18:22:43;;;;;;;12.20;9.55;;;18.90;99.90;;;16.64;100.00;100479.00;5891458;24;20406;-93
